sensor_id;sensor_type;location;lat;lon;timestamp;temperature;humidity
67165;SHT31;54093;50.014;19.984;2022-09-24T00:06:47;6.49;81.31
67165;SHT31;54093;50.014;19.984;2022-09-24T00:16:10;6.38;81.60
67165;SHT31;54093;50.014;19.984;2022-09-24T00:25:31;6.27;81.29
67165;SHT31;54093;50.014;19.984;2022-09-24T00:35:11;6.17;80.86
67165;SHT31;54093;50.014;19.984;2022-09-24T00:44:48;6.13;82.20
67165;SHT31;54093;50.014;19.984;2022-09-24T00:54:17;6.10;82.07
67165;SHT31;54093;50.014;19.984;2022-09-24T01:03:40;6.04;81.66
67165;SHT31;54093;50.014;19.984;2022-09-24T01:13:22;5.99;82.14
67165;SHT31;54093;50.014;19.984;2022-09-24T01:32:44;5.77;82.67
67165;SHT31;54093;50.014;19.984;2022-09-24T01:42:09;5.77;81.87
67165;SHT31;54093;50.014;19.984;2022-09-24T01:51:40;5.73;81.75
67165;SHT31;54093;50.014;19.984;2022-09-24T02:01:11;5.51;81.19
67165;SHT31;54093;50.014;19.984;2022-09-24T02:20:25;5.27;81.95
67165;SHT31;54093;50.014;19.984;2022-09-24T02:29:46;5.20;82.20
67165;SHT31;54093;50.014;19.984;2022-09-24T02:39:07;5.10;81.73
67165;SHT31;54093;50.014;19.984;2022-09-24T02:48:28;5.04;82.10
67165;SHT31;54093;50.014;19.984;2022-09-24T02:57:49;4.98;81.76
67165;SHT31;54093;50.014;19.984;2022-09-24T03:07:09;4.91;81.97
67165;SHT31;54093;50.014;19.984;2022-09-24T03:16:34;4.86;82.93
67165;SHT31;54093;50.014;19.984;2022-09-24T03:25:55;4.87;82.96
67165;SHT31;54093;50.014;19.984;2022-09-24T03:35:16;4.77;82.76
67165;SHT31;54093;50.014;19.984;2022-09-24T03:44:37;4.72;83.36
67165;SHT31;54093;50.014;19.984;2022-09-24T03:53:57;4.70;84.08
67165;SHT31;54093;50.014;19.984;2022-09-24T04:03:19;4.81;83.88
67165;SHT31;54093;50.014;19.984;2022-09-24T04:12:40;4.79;83.52
67165;SHT31;54093;50.014;19.984;2022-09-24T04:22:03;4.69;84.31
67165;SHT31;54093;50.014;19.984;2022-09-24T04:31:24;4.77;84.36
67165;SHT31;54093;50.014;19.984;2022-09-24T04:40:47;4.83;84.59
67165;SHT31;54093;50.014;19.984;2022-09-24T04:50:09;4.94;85.13
67165;SHT31;54093;50.014;19.984;2022-09-24T04:59:30;4.89;84.84
67165;SHT31;54093;50.014;19.984;2022-09-24T05:08:51;4.94;86.04
67165;SHT31;54093;50.014;19.984;2022-09-24T05:18:12;5.03;86.17
67165;SHT31;54093;50.014;19.984;2022-09-24T05:27:33;5.16;86.46
67165;SHT31;54093;50.014;19.984;2022-09-24T05:36:55;5.30;86.81
67165;SHT31;54093;50.014;19.984;2022-09-24T05:46:15;5.70;86.76
67165;SHT31;54093;50.014;19.984;2022-09-24T05:55:37;6.10;83.61
67165;SHT31;54093;50.014;19.984;2022-09-24T06:04:57;6.81;88.92
67165;SHT31;54093;50.014;19.984;2022-09-24T06:14:18;7.67;89.55
67165;SHT31;54093;50.014;19.984;2022-09-24T06:23:40;7.81;87.62
67165;SHT31;54093;50.014;19.984;2022-09-24T06:33:02;8.32;89.61
67165;SHT31;54093;50.014;19.984;2022-09-24T06:42:25;8.82;88.82
67165;SHT31;54093;50.014;19.984;2022-09-24T06:51:47;9.36;86.64
67165;SHT31;54093;50.014;19.984;2022-09-24T07:01:08;9.61;84.87
67165;SHT31;54093;50.014;19.984;2022-09-24T07:10:28;9.91;83.83
67165;SHT31;54093;50.014;19.984;2022-09-24T07:19:50;10.01;83.05
67165;SHT31;54093;50.014;19.984;2022-09-24T07:29:11;10.39;82.22
67165;SHT31;54093;50.014;19.984;2022-09-24T07:38:32;11.20;81.46
67165;SHT31;54093;50.014;19.984;2022-09-24T07:48:02;11.65;77.09
67165;SHT31;54093;50.014;19.984;2022-09-24T07:57:24;11.91;76.85
67165;SHT31;54093;50.014;19.984;2022-09-24T08:06:46;12.21;76.14
67165;SHT31;54093;50.014;19.984;2022-09-24T08:16:08;12.58;75.91
67165;SHT31;54093;50.014;19.984;2022-09-24T08:25:28;12.79;75.07
67165;SHT31;54093;50.014;19.984;2022-09-24T08:34:50;13.13;75.13
67165;SHT31;54093;50.014;19.984;2022-09-24T08:54:09;13.57;72.75
67165;SHT31;54093;50.014;19.984;2022-09-24T09:03:35;13.97;72.79
67165;SHT31;54093;50.014;19.984;2022-09-24T09:13:14;14.51;70.99
67165;SHT31;54093;50.014;19.984;2022-09-24T09:22:41;14.91;71.17
67165;SHT31;54093;50.014;19.984;2022-09-24T09:41:46;15.67;67.10
67165;SHT31;54093;50.014;19.984;2022-09-24T09:51:16;16.15;66.33
67165;SHT31;54093;50.014;19.984;2022-09-24T10:00:39;16.44;63.48
67165;SHT31;54093;50.014;19.984;2022-09-24T10:10:30;16.62;62.50
67165;SHT31;54093;50.014;19.984;2022-09-24T10:19:51;16.82;61.84
67165;SHT31;54093;50.014;19.984;2022-09-24T10:29:16;16.93;54.50
67165;SHT31;54093;50.014;19.984;2022-09-24T10:39:03;16.66;54.19
67165;SHT31;54093;50.014;19.984;2022-09-24T10:48:51;16.62;55.55
67165;SHT31;54093;50.014;19.984;2022-09-24T11:56:54;16.22;49.48
67165;SHT31;54093;50.014;19.984;2022-09-24T12:06:20;16.44;48.84
67165;SHT31;54093;50.014;19.984;2022-09-24T12:16:07;16.59;53.27
67165;SHT31;54093;50.014;19.984;2022-09-24T12:25:39;16.66;50.50
67165;SHT31;54093;50.014;19.984;2022-09-24T12:44:52;17.35;47.24
67165;SHT31;54093;50.014;19.984;2022-09-24T12:54:28;17.31;52.04
67165;SHT31;54093;50.014;19.984;2022-09-24T13:13:34;17.31;51.36
67165;SHT31;54093;50.014;19.984;2022-09-24T13:23:12;17.28;53.31
67165;SHT31;54093;50.014;19.984;2022-09-24T13:32:42;17.31;50.63
67165;SHT31;54093;50.014;19.984;2022-09-24T13:42:15;17.79;52.55
67165;SHT31;54093;50.014;19.984;2022-09-24T13:51:38;18.19;49.83
67165;SHT31;54093;50.014;19.984;2022-09-24T14:01:10;18.16;48.68
67165;SHT31;54093;50.014;19.984;2022-09-24T14:10:32;17.91;52.75
67165;SHT31;54093;50.014;19.984;2022-09-24T14:19:54;18.10;52.32
67165;SHT31;54093;50.014;19.984;2022-09-24T14:29:26;17.89;50.54
67165;SHT31;54093;50.014;19.984;2022-09-24T14:39:05;17.35;49.29
67165;SHT31;54093;50.014;19.984;2022-09-24T14:48:29;17.16;54.98
67165;SHT31;54093;50.014;19.984;2022-09-24T14:57:50;16.99;52.13
67165;SHT31;54093;50.014;19.984;2022-09-24T15:07:26;16.75;52.83
67165;SHT31;54093;50.014;19.984;2022-09-24T15:16:47;16.49;53.90
67165;SHT31;54093;50.014;19.984;2022-09-24T15:26:08;16.41;58.10
67165;SHT31;54093;50.014;19.984;2022-09-24T15:35:29;16.32;58.99
67165;SHT31;54093;50.014;19.984;2022-09-24T15:44:50;16.21;59.03
67165;SHT31;54093;50.014;19.984;2022-09-24T15:54:11;15.97;58.84
67165;SHT31;54093;50.014;19.984;2022-09-24T16:03:32;15.79;59.99
67165;SHT31;54093;50.014;19.984;2022-09-24T16:12:53;15.45;62.65
67165;SHT31;54093;50.014;19.984;2022-09-24T16:22:13;15.09;65.69
67165;SHT31;54093;50.014;19.984;2022-09-24T16:31:34;14.64;66.91
67165;SHT31;54093;50.014;19.984;2022-09-24T16:40:58;14.30;69.14
67165;SHT31;54093;50.014;19.984;2022-09-24T16:50:19;13.94;70.42
67165;SHT31;54093;50.014;19.984;2022-09-24T16:59:43;13.58;71.73
67165;SHT31;54093;50.014;19.984;2022-09-24T17:09:04;13.24;72.65
67165;SHT31;54093;50.014;19.984;2022-09-24T17:18:43;12.93;73.46
67165;SHT31;54093;50.014;19.984;2022-09-24T17:28:06;12.68;74.04
67165;SHT31;54093;50.014;19.984;2022-09-24T17:37:27;12.55;75.16
67165;SHT31;54093;50.014;19.984;2022-09-24T17:46:47;12.45;75.20
67165;SHT31;54093;50.014;19.984;2022-09-24T17:56:10;12.38;76.18
67165;SHT31;54093;50.014;19.984;2022-09-24T18:05:31;12.36;76.35
67165;SHT31;54093;50.014;19.984;2022-09-24T18:14:51;12.13;76.78
67165;SHT31;54093;50.014;19.984;2022-09-24T18:24:12;11.91;76.73
67165;SHT31;54093;50.014;19.984;2022-09-24T18:33:36;11.76;77.04
67165;SHT31;54093;50.014;19.984;2022-09-24T18:42:57;11.48;77.46
67165;SHT31;54093;50.014;19.984;2022-09-24T18:52:18;11.30;78.00
67165;SHT31;54093;50.014;19.984;2022-09-24T19:01:39;11.15;77.56
67165;SHT31;54093;50.014;19.984;2022-09-24T19:11:03;11.00;77.57
67165;SHT31;54093;50.014;19.984;2022-09-24T19:20:27;10.79;77.76
67165;SHT31;54093;50.014;19.984;2022-09-24T19:29:47;10.59;77.89
67165;SHT31;54093;50.014;19.984;2022-09-24T19:39:11;10.42;78.53
67165;SHT31;54093;50.014;19.984;2022-09-24T19:48:35;10.35;78.43
67165;SHT31;54093;50.014;19.984;2022-09-24T19:57:59;10.22;78.44
67165;SHT31;54093;50.014;19.984;2022-09-24T20:07:20;10.11;78.60
67165;SHT31;54093;50.014;19.984;2022-09-24T20:16:41;10.02;79.23
67165;SHT31;54093;50.014;19.984;2022-09-24T20:26:04;10.02;79.39
67165;SHT31;54093;50.014;19.984;2022-09-24T20:35:43;9.94;79.20
67165;SHT31;54093;50.014;19.984;2022-09-24T20:45:05;9.74;79.11
67165;SHT31;54093;50.014;19.984;2022-09-24T20:54:27;9.63;79.69
67165;SHT31;54093;50.014;19.984;2022-09-24T21:03:48;9.54;79.82
67165;SHT31;54093;50.014;19.984;2022-09-24T21:13:09;9.46;79.46
67165;SHT31;54093;50.014;19.984;2022-09-24T21:22:30;9.26;79.91
67165;SHT31;54093;50.014;19.984;2022-09-24T21:31:53;9.19;79.78
67165;SHT31;54093;50.014;19.984;2022-09-24T21:41:14;9.05;79.81
67165;SHT31;54093;50.014;19.984;2022-09-24T21:50:35;8.92;80.06
67165;SHT31;54093;50.014;19.984;2022-09-24T21:59:56;8.84;79.84
67165;SHT31;54093;50.014;19.984;2022-09-24T22:09:20;8.71;80.25
67165;SHT31;54093;50.014;19.984;2022-09-24T22:18:40;8.64;80.72
67165;SHT31;54093;50.014;19.984;2022-09-24T22:28:02;8.50;80.55
67165;SHT31;54093;50.014;19.984;2022-09-24T22:37:22;8.39;80.58
67165;SHT31;54093;50.014;19.984;2022-09-24T22:46:43;8.30;80.93
67165;SHT31;54093;50.014;19.984;2022-09-24T22:56:10;8.22;81.55
67165;SHT31;54093;50.014;19.984;2022-09-24T23:05:31;8.20;81.90
67165;SHT31;54093;50.014;19.984;2022-09-24T23:14:52;8.14;81.60
67165;SHT31;54093;50.014;19.984;2022-09-24T23:33:35;8.01;82.03
67165;SHT31;54093;50.014;19.984;2022-09-24T23:42:55;7.96;82.42
67165;SHT31;54093;50.014;19.984;2022-09-24T23:52:17;7.95;82.95
